Time,TemperatureF,DewpointF,PressureIn,WindDirection,WindDirectionDegrees,WindSpeedMPH,WindSpeedGustMPH,Humidity,HourlyPrecipIn,Conditions,Clouds,dailyrainin,SoftwareType,DateUTC
2013-01-17 00:13:00,37.8,36.0,29.88,WNW,300,2.0,9.0,94,0.00,,,0.03,weatherlink.com 1.10,2013-01-17 05:13:00,
2013-01-17 00:28:00,37.7,36.0,29.87,NW,304,3.0,7.0,94,0.00,,,0.03,weatherlink.com 1.10,2013-01-17 05:28:00,
2013-01-17 00:43:00,37.9,36.0,29.88,NW,307,3.0,10.0,93,0.00,,,0.03,weatherlink.com 1.10,2013-01-17 05:43:00,
2013-01-17 00:58:00,38.1,36.0,29.88,WNW,285,4.0,11.0,93,0.00,,,0.03,weatherlink.com 1.10,2013-01-17 05:58:00,
2013-01-17 01:13:00,38.2,36.0,29.88,NW,316,6.0,12.0,92,0.00,,,0.03,weatherlink.com 1.10,2013-01-17 06:13:00,
2013-01-17 01:28:00,38.4,36.0,29.89,WNW,290,7.0,12.0,92,0.00,,,0.03,weatherlink.com 1.10,2013-01-17 06:28:00,
2013-01-17 01:43:00,38.3,36.0,29.88,WNW,293,4.0,12.0,92,0.00,,,0.03,weatherlink.com 1.10,2013-01-17 06:43:00,
2013-01-17 01:58:00,38.3,36.0,29.88,NW,304,5.0,9.0,91,0.00,,,0.03,weatherlink.com 1.10,2013-01-17 06:58:00,
2013-01-17 02:13:00,-999.0,-99.9,29.88,North,-999,-999.0,-999.0,-999,0.00,,,0.03,weatherlink.com 1.10,2013-01-17 07:13:00,
2013-01-17 02:28:00,-999.0,-99.9,29.88,North,-999,-999.0,-999.0,-999,0.00,,,0.03,weatherlink.com 1.10,2013-01-17 07:28:00,
2013-01-17 02:43:00,-999.0,-99.9,29.88,North,-999,-999.0,-999.0,-999,0.00,,,0.03,weatherlink.com 1.10,2013-01-17 07:43:00,
2013-01-17 02:58:00,-999.0,-99.9,29.88,North,-999,-999.0,-999.0,-999,0.00,,,0.03,weatherlink.com 1.10,2013-01-17 07:58:00,
2013-01-17 03:13:00,-999.0,-99.9,29.89,North,-999,-999.0,-999.0,-999,0.00,,,0.03,weatherlink.com 1.10,2013-01-17 08:13:00,
2013-01-17 03:28:00,-999.0,-99.9,29.88,North,-999,-999.0,-999.0,-999,0.00,,,0.03,weatherlink.com 1.10,2013-01-17 08:28:00,
2013-01-17 03:43:00,-999.0,-99.9,29.89,North,-999,-999.0,-999.0,-999,0.00,,,0.03,weatherlink.com 1.10,2013-01-17 08:43:00,
2013-01-17 03:58:00,-999.0,-99.9,29.90,North,-999,-999.0,-999.0,-999,0.00,,,0.03,weatherlink.com 1.10,2013-01-17 08:58:00,
2013-01-17 04:13:00,-999.0,-99.9,29.89,North,-999,-999.0,-999.0,-999,0.00,,,0.03,weatherlink.com 1.10,2013-01-17 09:13:00,
2013-01-17 04:29:00,-999.0,-99.9,29.88,North,-999,-999.0,-999.0,-999,0.00,,,0.03,weatherlink.com 1.10,2013-01-17 09:29:00,
2013-01-17 04:44:00,-999.0,-99.9,29.88,North,-999,-999.0,-999.0,-999,0.00,,,0.03,weatherlink.com 1.10,2013-01-17 09:44:00,
2013-01-17 04:59:00,-999.0,-99.9,29.88,North,-999,-999.0,-999.0,-999,0.00,,,0.03,weatherlink.com 1.10,2013-01-17 09:59:00,
2013-01-17 05:14:00,-999.0,-99.9,29.88,North,-999,-999.0,-999.0,-999,0.00,,,0.03,weatherlink.com 1.10,2013-01-17 10:14:00,
2013-01-17 05:29:00,-999.0,-99.9,29.88,North,-999,-999.0,-999.0,-999,0.00,,,0.03,weatherlink.com 1.10,2013-01-17 10:29:00,
2013-01-17 05:44:00,-999.0,-99.9,29.89,North,-999,-999.0,-999.0,-999,0.00,,,0.03,weatherlink.com 1.10,2013-01-17 10:44:00,
2013-01-17 06:00:00,-999.0,-99.9,29.89,North,-999,-999.0,-999.0,-999,0.00,,,0.03,weatherlink.com 1.10,2013-01-17 11:00:00,
2013-01-17 06:14:00,-999.0,-99.9,29.91,North,-999,-999.0,-999.0,-999,0.00,,,0.03,weatherlink.com 1.10,2013-01-17 11:14:00,
2013-01-17 06:29:00,-999.0,-99.9,29.92,North,-999,-999.0,-999.0,-999,0.00,,,0.03,weatherlink.com 1.10,2013-01-17 11:29:00,
2013-01-17 06:44:00,-999.0,-99.9,29.92,North,-999,-999.0,-999.0,-999,0.00,,,0.03,weatherlink.com 1.10,2013-01-17 11:44:00,
2013-01-17 06:59:00,-999.0,-99.9,29.93,North,-999,-999.0,-999.0,-999,0.00,,,0.03,weatherlink.com 1.10,2013-01-17 11:59:00,
2013-01-17 07:14:00,-999.0,-99.9,29.93,North,-999,-999.0,-999.0,-999,0.00,,,0.03,weatherlink.com 1.10,2013-01-17 12:14:00,
2013-01-17 07:29:00,-999.0,-99.9,29.95,North,-999,-999.0,-999.0,-999,0.00,,,0.03,weatherlink.com 1.10,2013-01-17 12:29:00,
2013-01-17 07:44:00,-999.0,-99.9,29.97,North,-999,-999.0,-999.0,-999,0.00,,,0.03,weatherlink.com 1.10,2013-01-17 12:44:00,
2013-01-17 08:00:00,38.4,33.0,29.97,NNE,18,4.0,11.0,80,0.00,,,0.03,weatherlink.com 1.10,2013-01-17 13:00:00,
2013-01-17 08:15:00,38.6,33.0,29.98,NW,307,4.0,11.0,79,0.00,,,0.03,weatherlink.com 1.10,2013-01-17 13:15:00,
2013-01-17 08:30:00,38.8,33.0,29.98,NW,321,6.0,13.0,79,0.00,,,0.03,weatherlink.com 1.10,2013-01-17 13:30:00,
2013-01-17 08:45:00,38.2,32.0,30.00,WNW,300,5.0,8.0,79,0.00,,,0.03,weatherlink.com 1.10,2013-01-17 13:45:00,
2013-01-17 09:00:00,38.9,33.0,30.01,WNW,291,3.0,13.0,79,0.00,,,0.03,weatherlink.com 1.10,2013-01-17 14:00:00,
2013-01-17 09:15:00,38.5,33.0,30.00,WNW,293,3.0,8.0,79,0.00,,,0.03,weatherlink.com 1.10,2013-01-17 14:15:00,
2013-01-17 09:30:00,38.8,33.0,30.01,NW,308,5.0,8.0,78,0.00,,,0.03,weatherlink.com 1.10,2013-01-17 14:30:00,
2013-01-17 09:45:00,38.8,33.0,30.01,WNW,298,3.0,8.0,78,0.00,,,0.03,weatherlink.com 1.10,2013-01-17 14:45:00,
2013-01-17 10:00:00,39.1,33.0,30.02,West,277,2.0,5.0,79,0.00,,,0.03,weatherlink.com 1.10,2013-01-17 15:00:00,
2013-01-17 10:15:00,39.0,33.0,30.01,NW,304,3.0,7.0,79,0.00,,,0.03,weatherlink.com 1.10,2013-01-17 15:15:00,
2013-01-17 10:30:00,39.6,34.0,30.02,NW,321,2.0,5.0,79,0.00,,,0.03,weatherlink.com 1.10,2013-01-17 15:30:00,
2013-01-17 10:45:00,40.7,33.0,30.02,WNW,297,3.0,5.0,75,0.00,,,0.03,weatherlink.com 1.10,2013-01-17 15:45:00,
2013-01-17 11:00:00,41.5,34.0,30.00,WNW,300,5.0,7.0,76,0.00,,,0.03,weatherlink.com 1.10,2013-01-17 16:00:00,
2013-01-17 11:15:00,40.7,33.0,30.00,WNW,290,3.0,8.0,73,0.00,,,0.03,weatherlink.com 1.10,2013-01-17 16:15:00,
2013-01-17 11:30:00,40.9,32.0,30.00,WNW,293,5.0,7.0,71,0.00,,,0.03,weatherlink.com 1.10,2013-01-17 16:30:00,
2013-01-17 11:45:00,41.5,33.0,29.99,West,280,3.0,9.0,71,0.00,,,0.03,weatherlink.com 1.10,2013-01-17 16:45:00,
2013-01-17 12:00:00,42.2,33.0,29.98,West,274,3.0,10.0,71,0.00,,,0.03,weatherlink.com 1.10,2013-01-17 17:00:00,
2013-01-17 12:15:00,42.0,32.0,29.99,NNW,329,4.0,12.0,68,0.00,,,0.03,weatherlink.com 1.10,2013-01-17 17:15:00,
2013-01-17 12:30:00,42.0,33.0,30.00,WNW,302,3.0,9.0,70,0.00,,,0.03,weatherlink.com 1.10,2013-01-17 17:30:00,
2013-01-17 12:45:00,43.1,33.0,29.99,WNW,300,4.0,10.0,68,0.00,,,0.03,weatherlink.com 1.10,2013-01-17 17:45:00,
2013-01-17 13:00:00,42.3,33.0,30.00,NW,307,5.0,8.0,69,0.00,,,0.03,weatherlink.com 1.10,2013-01-17 18:00:00,
2013-01-17 13:15:00,43.7,33.0,30.00,WNW,298,3.0,8.0,66,0.00,,,0.03,weatherlink.com 1.10,2013-01-17 18:15:00,
2013-01-17 13:30:00,43.7,33.0,30.00,NW,312,3.0,8.0,67,0.00,,,0.03,weatherlink.com 1.10,2013-01-17 18:30:00,
2013-01-17 13:45:00,44.2,33.0,30.00,NW,307,4.0,7.0,64,0.00,,,0.03,weatherlink.com 1.10,2013-01-17 18:45:00,
2013-01-17 14:00:00,43.4,32.0,30.00,NW,312,6.0,7.0,64,0.00,,,0.03,weatherlink.com 1.10,2013-01-17 19:00:00,
2013-01-17 14:15:00,43.0,31.0,30.00,WNW,285,4.0,9.0,64,0.00,,,0.03,weatherlink.com 1.10,2013-01-17 19:15:00,
2013-01-17 14:30:00,42.9,32.0,30.01,West,273,3.0,5.0,65,0.00,,,0.03,weatherlink.com 1.10,2013-01-17 19:30:00,
2013-01-17 14:45:00,43.0,32.0,30.01,WNW,300,2.0,3.0,66,0.00,,,0.03,weatherlink.com 1.10,2013-01-17 19:45:00,
2013-01-17 15:00:00,43.1,32.0,30.00,SW,222,1.0,5.0,65,0.00,,,0.03,weatherlink.com 1.10,2013-01-17 20:00:00,
2013-01-17 15:15:00,42.8,31.0,30.00,NW,305,3.0,6.0,63,0.00,,,0.03,weatherlink.com 1.10,2013-01-17 20:15:00,
2013-01-17 15:30:00,42.2,31.0,30.02,WNW,293,4.0,6.0,64,0.00,,,0.03,weatherlink.com 1.10,2013-01-17 20:30:00,
2013-01-17 15:45:00,41.8,31.0,30.02,WNW,300,3.0,4.0,65,0.00,,,0.03,weatherlink.com 1.10,2013-01-17 20:45:00,
2013-01-17 16:00:00,41.4,30.0,30.02,West,281,3.0,5.0,65,0.00,,,0.03,weatherlink.com 1.10,2013-01-17 21:00:00,
2013-01-17 16:15:00,41.2,31.0,30.03,WSW,249,2.0,3.0,66,0.00,,,0.03,weatherlink.com 1.10,2013-01-17 21:15:00,
2013-01-17 16:30:00,40.9,31.0,30.04,West,274,1.0,3.0,67,0.00,,,0.03,weatherlink.com 1.10,2013-01-17 21:30:00,
2013-01-17 16:45:00,40.7,30.0,30.04,WNW,285,1.0,3.0,67,0.00,,,0.03,weatherlink.com 1.10,2013-01-17 21:45:00,
2013-01-17 17:00:00,40.4,31.0,30.05,WNW,297,0.0,1.0,69,0.00,,,0.03,weatherlink.com 1.10,2013-01-17 22:00:00,
2013-01-17 17:15:00,39.9,31.0,30.05,WSW,257,0.0,1.0,70,0.00,,,0.03,weatherlink.com 1.10,2013-01-17 22:15:00,
2013-01-17 17:30:00,39.7,31.0,30.05,SSW,198,0.0,1.0,71,0.00,,,0.03,weatherlink.com 1.10,2013-01-17 22:30:00,
2013-01-17 17:45:00,39.6,31.0,30.06,WNW,300,1.0,1.0,72,0.00,,,0.03,weatherlink.com 1.10,2013-01-17 22:45:00,
2013-01-17 18:00:00,39.7,29.0,30.05,WNW,284,1.0,3.0,67,0.00,,,0.03,weatherlink.com 1.10,2013-01-17 23:00:00,
2013-01-17 18:15:00,39.5,30.0,30.06,WNW,291,0.0,3.0,68,0.00,,,0.03,weatherlink.com 1.10,2013-01-17 23:15:00,
2013-01-17 18:31:00,39.3,29.0,30.05,SW,221,0.0,3.0,68,0.00,,,0.03,weatherlink.com 1.10,2013-01-17 23:31:00,
2013-01-17 18:45:00,39.1,30.0,30.06,SW,236,0.0,2.0,69,0.00,,,0.03,weatherlink.com 1.10,2013-01-17 23:45:00,
2013-01-17 19:00:00,38.9,30.0,30.07,WSW,248,1.0,2.0,70,0.00,,,0.03,weatherlink.com 1.10,2013-01-18 00:00:00,
2013-01-17 19:15:00,38.8,30.0,30.06,South,186,1.0,4.0,71,0.00,,,0.03,weatherlink.com 1.10,2013-01-18 00:15:00,
2013-01-17 19:31:00,38.6,30.0,30.07,SW,217,0.0,2.0,71,0.00,,,0.03,weatherlink.com 1.10,2013-01-18 00:31:00,
2013-01-17 19:46:00,38.4,29.0,30.07,SW,235,0.0,3.0,70,0.00,,,0.00,weatherlink.com 1.10,2013-01-18 00:46:00,
2013-01-17 20:01:00,38.1,29.0,30.05,WNW,288,0.0,3.0,70,0.00,,,0.00,weatherlink.com 1.10,2013-01-18 01:01:00,
2013-01-17 20:16:00,37.6,28.0,30.05,WSW,252,2.0,5.0,69,0.00,,,0.00,weatherlink.com 1.10,2013-01-18 01:16:00,
2013-01-17 20:31:00,37.0,27.0,30.06,East,86,2.0,4.0,67,0.00,,,0.00,weatherlink.com 1.10,2013-01-18 01:31:00,
2013-01-17 20:46:00,36.7,27.0,30.06,WSW,257,2.0,4.0,68,0.00,,,0.00,weatherlink.com 1.10,2013-01-18 01:46:00,
2013-01-17 21:01:00,36.3,25.0,30.07,West,267,1.0,5.0,64,0.00,,,0.00,weatherlink.com 1.10,2013-01-18 02:01:00,
2013-01-17 21:16:00,35.8,23.0,30.06,SSE,154,0.0,6.0,61,0.00,,,0.00,weatherlink.com 1.10,2013-01-18 02:16:00,
2013-01-17 21:31:00,35.5,24.0,30.04,WSW,240,2.0,5.0,64,0.00,,,0.00,weatherlink.com 1.10,2013-01-18 02:31:00,
2013-01-17 21:46:00,35.2,24.0,30.04,SSE,152,2.0,4.0,63,0.00,,,0.00,weatherlink.com 1.10,2013-01-18 02:46:00,
2013-01-17 22:01:00,35.0,24.0,30.07,SW,236,2.0,7.0,64,0.00,,,0.00,weatherlink.com 1.10,2013-01-18 03:01:00,
2013-01-17 22:16:00,34.7,24.0,30.05,SSW,197,1.0,5.0,64,0.00,,,0.00,weatherlink.com 1.10,2013-01-18 03:16:00,
2013-01-17 22:31:00,34.0,23.0,30.04,SSE,159,1.0,5.0,65,0.00,,,0.00,weatherlink.com 1.10,2013-01-18 03:31:00,
2013-01-17 22:46:00,33.7,23.0,30.03,WSW,243,1.0,4.0,64,0.00,,,0.00,weatherlink.com 1.10,2013-01-18 03:46:00,
2013-01-17 23:01:00,33.5,22.0,29.99,South,190,2.0,5.0,62,0.00,,,0.00,weatherlink.com 1.10,2013-01-18 04:01:00,
2013-01-17 23:16:00,33.5,22.0,30.02,SE,124,1.0,7.0,63,0.00,,,0.00,weatherlink.com 1.10,2013-01-18 04:16:00,
2013-01-17 23:31:00,33.6,22.0,30.03,South,186,0.0,4.0,62,0.00,,,0.00,weatherlink.com 1.10,2013-01-18 04:31:00,
2013-01-17 23:46:00,33.7,21.0,30.02,SW,226,2.0,3.0,60,0.00,,,0.00,weatherlink.com 1.10,2013-01-18 04:46:00,